sensor_id;sensor_type;location;lat;lon;timestamp;temperature;humidity
71128;SHT30;59249;59.736;30.568;2022-08-23T00:02:00;20.47;83.52
71128;SHT30;59249;59.736;30.568;2022-08-23T00:04:37;20.52;83.26
71128;SHT30;59249;59.736;30.568;2022-08-23T00:07:26;20.59;82.89
71128;SHT30;59249;59.736;30.568;2022-08-23T00:09:57;20.51;83.13
71128;SHT30;59249;59.736;30.568;2022-08-23T00:12:26;20.49;83.58
71128;SHT30;59249;59.736;30.568;2022-08-23T00:14:55;20.47;83.43
71128;SHT30;59249;59.736;30.568;2022-08-23T00:17:24;20.49;83.57
71128;SHT30;59249;59.736;30.568;2022-08-23T00:20:03;20.47;83.28
71128;SHT30;59249;59.736;30.568;2022-08-23T00:22:33;20.35;83.34
71128;SHT30;59249;59.736;30.568;2022-08-23T00:25:06;20.33;83.39
71128;SHT30;59249;59.736;30.568;2022-08-23T00:27:37;20.28;83.47
71128;SHT30;59249;59.736;30.568;2022-08-23T00:30:11;20.23;84.04
71128;SHT30;59249;59.736;30.568;2022-08-23T00:32:41;20.26;84.28
71128;SHT30;59249;59.736;30.568;2022-08-23T00:35:12;20.36;83.95
71128;SHT30;59249;59.736;30.568;2022-08-23T00:37:55;20.33;83.79
71128;SHT30;59249;59.736;30.568;2022-08-23T00:40:49;20.38;83.84
71128;SHT30;59249;59.736;30.568;2022-08-23T00:43:25;20.49;83.45
71128;SHT30;59249;59.736;30.568;2022-08-23T00:46:44;20.49;82.88
71128;SHT30;59249;59.736;30.568;2022-08-23T00:49:52;20.43;83.43
71128;SHT30;59249;59.736;30.568;2022-08-23T00:52:28;20.39;83.11
71128;SHT30;59249;59.736;30.568;2022-08-23T00:54:59;20.35;83.63
71128;SHT30;59249;59.736;30.568;2022-08-23T00:57:33;20.38;83.68
71128;SHT30;59249;59.736;30.568;2022-08-23T01:00:07;20.38;83.57
71128;SHT30;59249;59.736;30.568;2022-08-23T01:02:37;20.33;83.63
71128;SHT30;59249;59.736;30.568;2022-08-23T01:05:08;20.36;83.63
71128;SHT30;59249;59.736;30.568;2022-08-23T01:07:47;20.41;83.69
71128;SHT30;59249;59.736;30.568;2022-08-23T01:10:25;20.41;83.50
71128;SHT30;59249;59.736;30.568;2022-08-23T01:13:06;20.43;83.17
71128;SHT30;59249;59.736;30.568;2022-08-23T01:15:41;20.43;83.20
71128;SHT30;59249;59.736;30.568;2022-08-23T01:18:16;20.40;83.29
71128;SHT30;59249;59.736;30.568;2022-08-23T01:20:59;20.40;83.28
71128;SHT30;59249;59.736;30.568;2022-08-23T01:23:39;20.31;83.31
71128;SHT30;59249;59.736;30.568;2022-08-23T01:26:11;20.29;83.55
71128;SHT30;59249;59.736;30.568;2022-08-23T01:28:49;20.26;83.63
71128;SHT30;59249;59.736;30.568;2022-08-23T01:31:21;20.25;83.53
71128;SHT30;59249;59.736;30.568;2022-08-23T01:33:57;20.32;83.80
71128;SHT30;59249;59.736;30.568;2022-08-23T01:36:27;20.49;83.66
71128;SHT30;59249;59.736;30.568;2022-08-23T01:38:57;20.49;82.98
71128;SHT30;59249;59.736;30.568;2022-08-23T01:41:26;20.49;82.92
71128;SHT30;59249;59.736;30.568;2022-08-23T01:43:55;20.52;83.06
71128;SHT30;59249;59.736;30.568;2022-08-23T01:46:27;20.65;83.02
71128;SHT30;59249;59.736;30.568;2022-08-23T01:48:55;20.70;82.42
71128;SHT30;59249;59.736;30.568;2022-08-23T01:51:28;20.65;82.35
71128;SHT30;59249;59.736;30.568;2022-08-23T01:53:59;20.68;82.55
71128;SHT30;59249;59.736;30.568;2022-08-23T01:56:29;20.64;82.52
71128;SHT30;59249;59.736;30.568;2022-08-23T01:59:11;20.58;83.05
71128;SHT30;59249;59.736;30.568;2022-08-23T02:01:44;20.59;83.63
71128;SHT30;59249;59.736;30.568;2022-08-23T02:04:15;20.59;83.94
71128;SHT30;59249;59.736;30.568;2022-08-23T02:06:43;20.54;84.11
71128;SHT30;59249;59.736;30.568;2022-08-23T02:09:18;20.52;84.76
71128;SHT30;59249;59.736;30.568;2022-08-23T02:11:48;20.47;85.58
71128;SHT30;59249;59.736;30.568;2022-08-23T02:14:20;20.43;85.77
71128;SHT30;59249;59.736;30.568;2022-08-23T02:16:54;20.40;85.95
71128;SHT30;59249;59.736;30.568;2022-08-23T02:19:32;20.41;86.42
71128;SHT30;59249;59.736;30.568;2022-08-23T02:22:05;20.35;86.58
71128;SHT30;59249;59.736;30.568;2022-08-23T02:24:39;20.35;86.84
71128;SHT30;59249;59.736;30.568;2022-08-23T02:27:09;20.39;86.77
71128;SHT30;59249;59.736;30.568;2022-08-23T02:29:44;20.43;86.65
71128;SHT30;59249;59.736;30.568;2022-08-23T02:32:16;20.42;86.77
71128;SHT30;59249;59.736;30.568;2022-08-23T02:34:46;20.44;86.24
71128;SHT30;59249;59.736;30.568;2022-08-23T02:37:34;20.49;86.55
71128;SHT30;59249;59.736;30.568;2022-08-23T02:40:08;20.49;86.19
71128;SHT30;59249;59.736;30.568;2022-08-23T02:42:37;20.49;86.59
71128;SHT30;59249;59.736;30.568;2022-08-23T02:45:08;20.40;86.72
71128;SHT30;59249;59.736;30.568;2022-08-23T02:47:43;20.37;86.80
71128;SHT30;59249;59.736;30.568;2022-08-23T02:50:26;20.45;86.63
71128;SHT30;59249;59.736;30.568;2022-08-23T02:52:57;20.39;86.45
71128;SHT30;59249;59.736;30.568;2022-08-23T02:55:28;20.42;85.95
71128;SHT30;59249;59.736;30.568;2022-08-23T02:57:57;20.39;86.30
71128;SHT30;59249;59.736;30.568;2022-08-23T03:00:27;20.35;86.15
71128;SHT30;59249;59.736;30.568;2022-08-23T03:02:56;20.45;85.78
71128;SHT30;59249;59.736;30.568;2022-08-23T03:05:26;20.49;85.61
71128;SHT30;59249;59.736;30.568;2022-08-23T03:07:54;20.48;85.21
71128;SHT30;59249;59.736;30.568;2022-08-23T03:10:23;20.44;85.23
71128;SHT30;59249;59.736;30.568;2022-08-23T03:13:00;20.48;84.88
71128;SHT30;59249;59.736;30.568;2022-08-23T03:15:29;20.45;84.55
71128;SHT30;59249;59.736;30.568;2022-08-23T03:17:58;20.40;84.33
71128;SHT30;59249;59.736;30.568;2022-08-23T03:20:27;20.39;84.46
71128;SHT30;59249;59.736;30.568;2022-08-23T03:22:56;20.44;84.41
71128;SHT30;59249;59.736;30.568;2022-08-23T03:25:27;20.47;83.95
71128;SHT30;59249;59.736;30.568;2022-08-23T03:28:21;20.55;83.80
71128;SHT30;59249;59.736;30.568;2022-08-23T03:30:50;20.59;83.55
71128;SHT30;59249;59.736;30.568;2022-08-23T03:33:20;20.56;83.50
71128;SHT30;59249;59.736;30.568;2022-08-23T03:35:50;20.56;83.68
71128;SHT30;59249;59.736;30.568;2022-08-23T03:38:19;20.55;83.80
71128;SHT30;59249;59.736;30.568;2022-08-23T03:40:48;20.56;83.77
71128;SHT30;59249;59.736;30.568;2022-08-23T03:43:23;20.66;83.87
71128;SHT30;59249;59.736;30.568;2022-08-23T03:45:53;20.71;83.79
71128;SHT30;59249;59.736;30.568;2022-08-23T03:48:22;20.72;83.84
71128;SHT30;59249;59.736;30.568;2022-08-23T03:50:51;20.83;83.67
71128;SHT30;59249;59.736;30.568;2022-08-23T03:53:22;20.89;83.61
71128;SHT30;59249;59.736;30.568;2022-08-23T03:55:52;20.91;83.38
71128;SHT30;59249;59.736;30.568;2022-08-23T03:58:24;20.94;83.57
71128;SHT30;59249;59.736;30.568;2022-08-23T04:00:56;20.99;83.61
71128;SHT30;59249;59.736;30.568;2022-08-23T04:03:25;21.05;83.46
71128;SHT30;59249;59.736;30.568;2022-08-23T04:06:00;21.15;83.32
71128;SHT30;59249;59.736;30.568;2022-08-23T04:08:30;21.19;83.45
71128;SHT30;59249;59.736;30.568;2022-08-23T04:11:03;21.28;83.35
71128;SHT30;59249;59.736;30.568;2022-08-23T04:13:36;21.33;83.47
71128;SHT30;59249;59.736;30.568;2022-08-23T04:16:06;21.37;83.18
71128;SHT30;59249;59.736;30.568;2022-08-23T04:18:36;21.35;83.40
71128;SHT30;59249;59.736;30.568;2022-08-23T04:21:09;21.33;83.50
71128;SHT30;59249;59.736;30.568;2022-08-23T04:23:40;21.43;83.21
71128;SHT30;59249;59.736;30.568;2022-08-23T04:26:10;21.52;82.87
71128;SHT30;59249;59.736;30.568;2022-08-23T04:28:42;21.48;82.90
71128;SHT30;59249;59.736;30.568;2022-08-23T04:31:12;21.57;82.89
71128;SHT30;59249;59.736;30.568;2022-08-23T04:33:44;21.59;82.47
71128;SHT30;59249;59.736;30.568;2022-08-23T04:36:19;21.62;82.35
71128;SHT30;59249;59.736;30.568;2022-08-23T04:38:51;21.62;82.41
71128;SHT30;59249;59.736;30.568;2022-08-23T04:41:20;21.64;81.98
71128;SHT30;59249;59.736;30.568;2022-08-23T04:44:07;21.61;82.31
71128;SHT30;59249;59.736;30.568;2022-08-23T04:46:36;21.70;82.13
71128;SHT30;59249;59.736;30.568;2022-08-23T04:49:06;21.69;81.93
71128;SHT30;59249;59.736;30.568;2022-08-23T04:51:35;21.82;81.73
71128;SHT30;59249;59.736;30.568;2022-08-23T04:54:04;21.87;81.32
71128;SHT30;59249;59.736;30.568;2022-08-23T04:56:41;21.87;81.51
71128;SHT30;59249;59.736;30.568;2022-08-23T04:59:19;21.91;81.16
71128;SHT30;59249;59.736;30.568;2022-08-23T05:01:49;21.90;80.79
71128;SHT30;59249;59.736;30.568;2022-08-23T05:04:18;21.90;80.78
71128;SHT30;59249;59.736;30.568;2022-08-23T05:06:48;21.90;80.81
71128;SHT30;59249;59.736;30.568;2022-08-23T05:09:20;21.90;80.94
71128;SHT30;59249;59.736;30.568;2022-08-23T05:11:52;21.83;81.17
71128;SHT30;59249;59.736;30.568;2022-08-23T05:14:24;21.86;80.91
71128;SHT30;59249;59.736;30.568;2022-08-23T05:16:53;21.93;80.62
71128;SHT30;59249;59.736;30.568;2022-08-23T05:19:22;21.87;80.72
71128;SHT30;59249;59.736;30.568;2022-08-23T05:21:51;21.87;80.93
71128;SHT30;59249;59.736;30.568;2022-08-23T05:24:30;21.97;80.77
71128;SHT30;59249;59.736;30.568;2022-08-23T05:26:59;22.10;80.46
71128;SHT30;59249;59.736;30.568;2022-08-23T05:29:30;22.22;80.24
71128;SHT30;59249;59.736;30.568;2022-08-23T05:31:59;22.32;80.12
71128;SHT30;59249;59.736;30.568;2022-08-23T05:34:28;22.40;79.91
71128;SHT30;59249;59.736;30.568;2022-08-23T05:36:58;22.48;79.63
71128;SHT30;59249;59.736;30.568;2022-08-23T05:39:32;22.59;79.18
71128;SHT30;59249;59.736;30.568;2022-08-23T05:42:11;22.75;79.02
71128;SHT30;59249;59.736;30.568;2022-08-23T05:44:43;22.85;78.57
71128;SHT30;59249;59.736;30.568;2022-08-23T05:47:15;22.82;77.73
71128;SHT30;59249;59.736;30.568;2022-08-23T05:50:09;22.75;77.62
71128;SHT30;59249;59.736;30.568;2022-08-23T05:52:39;22.69;77.94
71128;SHT30;59249;59.736;30.568;2022-08-23T05:55:08;22.71;78.11
71128;SHT30;59249;59.736;30.568;2022-08-23T05:57:57;22.55;77.78
71128;SHT30;59249;59.736;30.568;2022-08-23T06:00:28;22.60;78.03
71128;SHT30;59249;59.736;30.568;2022-08-23T06:03:04;22.66;78.08
71128;SHT30;59249;59.736;30.568;2022-08-23T06:05:38;22.73;77.75
71128;SHT30;59249;59.736;30.568;2022-08-23T06:08:10;22.81;77.63
71128;SHT30;59249;59.736;30.568;2022-08-23T06:10:38;22.98;77.23
71128;SHT30;59249;59.736;30.568;2022-08-23T06:13:26;23.10;76.72
71128;SHT30;59249;59.736;30.568;2022-08-23T06:15:57;23.10;76.48
71128;SHT30;59249;59.736;30.568;2022-08-23T06:18:43;22.99;76.30
71128;SHT30;59249;59.736;30.568;2022-08-23T06:21:32;23.06;76.02
71128;SHT30;59249;59.736;30.568;2022-08-23T06:24:02;22.99;75.99
71128;SHT30;59249;59.736;30.568;2022-08-23T06:26:36;23.09;76.15
71128;SHT30;59249;59.736;30.568;2022-08-23T06:29:11;23.05;75.83
71128;SHT30;59249;59.736;30.568;2022-08-23T06:31:49;23.08;75.78
71128;SHT30;59249;59.736;30.568;2022-08-23T06:34:26;23.15;75.62
71128;SHT30;59249;59.736;30.568;2022-08-23T06:37:18;23.12;75.25
71128;SHT30;59249;59.736;30.568;2022-08-23T06:40:07;23.27;74.91
71128;SHT30;59249;59.736;30.568;2022-08-23T06:42:57;23.38;74.62
71128;SHT30;59249;59.736;30.568;2022-08-23T06:45:36;23.41;74.45
71128;SHT30;59249;59.736;30.568;2022-08-23T06:48:07;23.39;74.24
71128;SHT30;59249;59.736;30.568;2022-08-23T06:50:36;23.54;74.02
71128;SHT30;59249;59.736;30.568;2022-08-23T06:53:29;23.57;73.95
71128;SHT30;59249;59.736;30.568;2022-08-23T06:56:19;23.56;73.73
71128;SHT30;59249;59.736;30.568;2022-08-23T06:59:02;23.59;73.85
71128;SHT30;59249;59.736;30.568;2022-08-23T07:02:12;23.62;73.42
71128;SHT30;59249;59.736;30.568;2022-08-23T07:05:04;23.72;73.04
71128;SHT30;59249;59.736;30.568;2022-08-23T07:07:54;23.76;72.79
71128;SHT30;59249;59.736;30.568;2022-08-23T07:10:23;23.74;72.49
71128;SHT30;59249;59.736;30.568;2022-08-23T07:12:52;23.77;72.10
71128;SHT30;59249;59.736;30.568;2022-08-23T07:15:21;23.82;71.68
71128;SHT30;59249;59.736;30.568;2022-08-23T07:17:50;23.96;71.98
71128;SHT30;59249;59.736;30.568;2022-08-23T07:20:21;24.06;71.86
71128;SHT30;59249;59.736;30.568;2022-08-23T07:22:50;24.06;71.24
71128;SHT30;59249;59.736;30.568;2022-08-23T07:25:18;24.10;71.40
71128;SHT30;59249;59.736;30.568;2022-08-23T07:27:52;24.17;70.77
71128;SHT30;59249;59.736;30.568;2022-08-23T07:30:22;24.26;70.69
71128;SHT30;59249;59.736;30.568;2022-08-23T07:32:51;24.29;69.68
71128;SHT30;59249;59.736;30.568;2022-08-23T07:35:27;24.36;69.73
71128;SHT30;59249;59.736;30.568;2022-08-23T07:38:03;24.37;69.43
71128;SHT30;59249;59.736;30.568;2022-08-23T07:40:34;24.36;68.90
71128;SHT30;59249;59.736;30.568;2022-08-23T07:43:07;24.36;69.45
71128;SHT30;59249;59.736;30.568;2022-08-23T07:45:38;24.45;69.15
71128;SHT30;59249;59.736;30.568;2022-08-23T07:48:10;24.48;68.60
71128;SHT30;59249;59.736;30.568;2022-08-23T07:51:11;24.54;68.42
71128;SHT30;59249;59.736;30.568;2022-08-23T07:53:43;24.61;67.84
71128;SHT30;59249;59.736;30.568;2022-08-23T07:56:18;24.62;67.69
71128;SHT30;59249;59.736;30.568;2022-08-23T07:59:13;24.75;68.17
71128;SHT30;59249;59.736;30.568;2022-08-23T08:02:02;24.81;67.44
71128;SHT30;59249;59.736;30.568;2022-08-23T08:04:32;24.81;67.75
71128;SHT30;59249;59.736;30.568;2022-08-23T08:07:03;24.87;67.74
71128;SHT30;59249;59.736;30.568;2022-08-23T08:09:47;24.86;68.04
71128;SHT30;59249;59.736;30.568;2022-08-23T08:12:16;24.86;67.81
71128;SHT30;59249;59.736;30.568;2022-08-23T08:14:48;24.85;68.10
71128;SHT30;59249;59.736;30.568;2022-08-23T08:17:20;24.98;67.87
71128;SHT30;59249;59.736;30.568;2022-08-23T08:20:31;25.06;67.20
71128;SHT30;59249;59.736;30.568;2022-08-23T08:23:29;25.04;67.24
71128;SHT30;59249;59.736;30.568;2022-08-23T08:26:25;25.14;66.91
71128;SHT30;59249;59.736;30.568;2022-08-23T08:28:56;25.16;66.46
71128;SHT30;59249;59.736;30.568;2022-08-23T08:31:26;25.30;66.47
71128;SHT30;59249;59.736;30.568;2022-08-23T08:33:56;25.32;65.67
71128;SHT30;59249;59.736;30.568;2022-08-23T08:36:32;25.29;66.32
71128;SHT30;59249;59.736;30.568;2022-08-23T08:39:09;25.41;66.42
71128;SHT30;59249;59.736;30.568;2022-08-23T08:41:53;25.54;65.96
71128;SHT30;59249;59.736;30.568;2022-08-23T08:44:41;25.62;65.99
71128;SHT30;59249;59.736;30.568;2022-08-23T08:47:29;25.74;64.92
71128;SHT30;59249;59.736;30.568;2022-08-23T08:50:14;25.68;64.79
71128;SHT30;59249;59.736;30.568;2022-08-23T08:52:56;25.57;64.90
71128;SHT30;59249;59.736;30.568;2022-08-23T08:56:08;25.74;64.66
71128;SHT30;59249;59.736;30.568;2022-08-23T08:58:49;25.77;64.63
71128;SHT30;59249;59.736;30.568;2022-08-23T09:01:23;25.89;64.17
71128;SHT30;59249;59.736;30.568;2022-08-23T09:03:55;26.00;64.06
71128;SHT30;59249;59.736;30.568;2022-08-23T09:06:34;25.92;64.10
71128;SHT30;59249;59.736;30.568;2022-08-23T09:09:25;25.97;64.84
71128;SHT30;59249;59.736;30.568;2022-08-23T09:12:09;26.03;63.16
71128;SHT30;59249;59.736;30.568;2022-08-23T09:15:14;26.04;63.31
71128;SHT30;59249;59.736;30.568;2022-08-23T09:17:52;26.16;62.86
71128;SHT30;59249;59.736;30.568;2022-08-23T09:20:27;26.18;62.79
71128;SHT30;59249;59.736;30.568;2022-08-23T09:23:10;26.22;62.42
71128;SHT30;59249;59.736;30.568;2022-08-23T09:25:51;26.32;62.16
71128;SHT30;59249;59.736;30.568;2022-08-23T09:28:33;26.48;62.11
71128;SHT30;59249;59.736;30.568;2022-08-23T09:31:05;26.62;61.79
71128;SHT30;59249;59.736;30.568;2022-08-23T09:33:40;26.72;61.34
71128;SHT30;59249;59.736;30.568;2022-08-23T09:36:37;26.81;61.13
71128;SHT30;59249;59.736;30.568;2022-08-23T09:39:23;26.92;60.47
71128;SHT30;59249;59.736;30.568;2022-08-23T09:42:02;27.02;60.98
71128;SHT30;59249;59.736;30.568;2022-08-23T09:44:39;27.12;60.55
71128;SHT30;59249;59.736;30.568;2022-08-23T09:47:13;27.11;59.92
71128;SHT30;59249;59.736;30.568;2022-08-23T09:49:51;27.19;59.48
71128;SHT30;59249;59.736;30.568;2022-08-23T09:52:26;27.26;58.74
71128;SHT30;59249;59.736;30.568;2022-08-23T09:55:07;27.31;59.06
71128;SHT30;59249;59.736;30.568;2022-08-23T09:57:46;27.31;59.25
71128;SHT30;59249;59.736;30.568;2022-08-23T10:00:25;27.20;58.96
71128;SHT30;59249;59.736;30.568;2022-08-23T10:03:21;27.24;58.73
71128;SHT30;59249;59.736;30.568;2022-08-23T10:05:56;27.20;59.29
71128;SHT30;59249;59.736;30.568;2022-08-23T10:08:32;27.32;59.63
71128;SHT30;59249;59.736;30.568;2022-08-23T10:11:17;27.49;59.67
71128;SHT30;59249;59.736;30.568;2022-08-23T10:13:47;27.60;59.28
71128;SHT30;59249;59.736;30.568;2022-08-23T10:16:33;27.80;58.80
71128;SHT30;59249;59.736;30.568;2022-08-23T10:19:22;27.80;57.17
71128;SHT30;59249;59.736;30.568;2022-08-23T10:22:02;27.78;56.88
71128;SHT30;59249;59.736;30.568;2022-08-23T10:24:44;27.83;56.92
71128;SHT30;59249;59.736;30.568;2022-08-23T10:27:35;27.88;57.46
71128;SHT30;59249;59.736;30.568;2022-08-23T10:30:35;27.97;57.80
71128;SHT30;59249;59.736;30.568;2022-08-23T10:33:16;28.13;57.81
71128;SHT30;59249;59.736;30.568;2022-08-23T10:36:01;28.23;57.00
71128;SHT30;59249;59.736;30.568;2022-08-23T10:38:42;28.09;56.58
71128;SHT30;59249;59.736;30.568;2022-08-23T10:41:42;28.06;56.40
71128;SHT30;59249;59.736;30.568;2022-08-23T10:44:26;28.11;56.81
71128;SHT30;59249;59.736;30.568;2022-08-23T10:47:27;28.21;56.04
71128;SHT30;59249;59.736;30.568;2022-08-23T10:50:06;28.23;55.88
71128;SHT30;59249;59.736;30.568;2022-08-23T10:52:42;28.26;56.12
71128;SHT30;59249;59.736;30.568;2022-08-23T10:55:23;28.29;56.34
71128;SHT30;59249;59.736;30.568;2022-08-23T10:58:07;28.30;56.01
71128;SHT30;59249;59.736;30.568;2022-08-23T11:00:39;28.32;55.81
71128;SHT30;59249;59.736;30.568;2022-08-23T11:03:18;28.39;55.91
71128;SHT30;59249;59.736;30.568;2022-08-23T11:09:54;28.77;54.42
71128;SHT30;59249;59.736;30.568;2022-08-23T11:12:29;28.89;54.73
71128;SHT30;59249;59.736;30.568;2022-08-23T11:15:24;28.82;54.98
71128;SHT30;59249;59.736;30.568;2022-08-23T11:18:05;28.83;55.55
71128;SHT30;59249;59.736;30.568;2022-08-23T11:20:59;28.98;55.59
71128;SHT30;59249;59.736;30.568;2022-08-23T11:23:46;29.20;54.69
71128;SHT30;59249;59.736;30.568;2022-08-23T11:27:04;29.18;54.31
71128;SHT30;59249;59.736;30.568;2022-08-23T11:29:42;29.19;54.27
71128;SHT30;59249;59.736;30.568;2022-08-23T11:32:44;29.07;54.49
71128;SHT30;59249;59.736;30.568;2022-08-23T11:35:40;29.16;54.81
71128;SHT30;59249;59.736;30.568;2022-08-23T11:38:13;29.21;54.24
71128;SHT30;59249;59.736;30.568;2022-08-23T11:41:10;29.09;54.94
71128;SHT30;59249;59.736;30.568;2022-08-23T11:43:43;29.22;54.58
71128;SHT30;59249;59.736;30.568;2022-08-23T11:46:35;29.24;54.74
71128;SHT30;59249;59.736;30.568;2022-08-23T11:50:04;29.30;54.66
71128;SHT30;59249;59.736;30.568;2022-08-23T11:56:26;29.44;54.24
71128;SHT30;59249;59.736;30.568;2022-08-23T11:59:34;29.38;54.88
71128;SHT30;59249;59.736;30.568;2022-08-23T12:02:39;29.46;54.66
71128;SHT30;59249;59.736;30.568;2022-08-23T12:08:50;29.47;55.56
71128;SHT30;59249;59.736;30.568;2022-08-23T12:11:24;29.61;55.89
71128;SHT30;59249;59.736;30.568;2022-08-23T12:14:33;29.50;55.54
71128;SHT30;59249;59.736;30.568;2022-08-23T12:20:27;29.37;56.23
71128;SHT30;59249;59.736;30.568;2022-08-23T12:23:11;29.23;56.25
71128;SHT30;59249;59.736;30.568;2022-08-23T12:25:41;29.39;55.62
71128;SHT30;59249;59.736;30.568;2022-08-23T12:28:32;29.21;57.11
71128;SHT30;59249;59.736;30.568;2022-08-23T12:31:22;29.30;57.33
71128;SHT30;59249;59.736;30.568;2022-08-23T12:34:15;29.18;57.21
71128;SHT30;59249;59.736;30.568;2022-08-23T12:36:57;29.23;57.15
71128;SHT30;59249;59.736;30.568;2022-08-23T12:39:37;29.31;57.14
71128;SHT30;59249;59.736;30.568;2022-08-23T12:42:12;29.35;57.15
71128;SHT30;59249;59.736;30.568;2022-08-23T12:44:46;29.30;57.36
71128;SHT30;59249;59.736;30.568;2022-08-23T12:47:25;29.21;57.76
71128;SHT30;59249;59.736;30.568;2022-08-23T12:49:58;29.18;57.36
71128;SHT30;59249;59.736;30.568;2022-08-23T12:52:33;29.10;57.61
71128;SHT30;59249;59.736;30.568;2022-08-23T12:55:12;28.91;57.62
71128;SHT30;59249;59.736;30.568;2022-08-23T12:57:49;28.98;58.02
71128;SHT30;59249;59.736;30.568;2022-08-23T13:00:25;28.95;57.45
71128;SHT30;59249;59.736;30.568;2022-08-23T13:03:00;28.91;58.25
71128;SHT30;59249;59.736;30.568;2022-08-23T13:05:37;28.89;57.36
71128;SHT30;59249;59.736;30.568;2022-08-23T13:08:12;28.78;57.96
71128;SHT30;59249;59.736;30.568;2022-08-23T13:10:44;28.88;57.88
71128;SHT30;59249;59.736;30.568;2022-08-23T13:13:21;28.86;57.85
71128;SHT30;59249;59.736;30.568;2022-08-23T13:15:55;28.92;57.39
71128;SHT30;59249;59.736;30.568;2022-08-23T13:18:30;29.01;57.61
71128;SHT30;59249;59.736;30.568;2022-08-23T13:21:29;28.98;57.75
71128;SHT30;59249;59.736;30.568;2022-08-23T13:24:31;28.81;58.03
71128;SHT30;59249;59.736;30.568;2022-08-23T13:27:21;28.93;57.75
71128;SHT30;59249;59.736;30.568;2022-08-23T13:29:54;28.73;57.69
71128;SHT30;59249;59.736;30.568;2022-08-23T13:32:28;28.73;58.14
71128;SHT30;59249;59.736;30.568;2022-08-23T13:35:32;28.52;59.34
71128;SHT30;59249;59.736;30.568;2022-08-23T13:38:15;28.71;58.98
71128;SHT30;59249;59.736;30.568;2022-08-23T13:40:59;28.77;58.26
71128;SHT30;59249;59.736;30.568;2022-08-23T13:43:34;28.75;59.01
71128;SHT30;59249;59.736;30.568;2022-08-23T13:46:16;28.76;58.86
71128;SHT30;59249;59.736;30.568;2022-08-23T13:48:55;28.45;59.57
71128;SHT30;59249;59.736;30.568;2022-08-23T13:51:31;28.32;59.14
71128;SHT30;59249;59.736;30.568;2022-08-23T13:54:06;28.47;59.42
71128;SHT30;59249;59.736;30.568;2022-08-23T13:56:45;28.44;58.53
71128;SHT30;59249;59.736;30.568;2022-08-23T13:59:23;28.35;58.48
71128;SHT30;59249;59.736;30.568;2022-08-23T14:02:00;28.09;58.43
71128;SHT30;59249;59.736;30.568;2022-08-23T14:04:31;28.00;59.22
71128;SHT30;59249;59.736;30.568;2022-08-23T14:07:00;27.93;59.48
71128;SHT30;59249;59.736;30.568;2022-08-23T14:09:32;27.97;59.68
71128;SHT30;59249;59.736;30.568;2022-08-23T14:12:10;28.06;59.53
71128;SHT30;59249;59.736;30.568;2022-08-23T14:14:41;28.04;59.31
71128;SHT30;59249;59.736;30.568;2022-08-23T14:17:11;28.04;59.52
71128;SHT30;59249;59.736;30.568;2022-08-23T14:19:44;27.99;59.73
71128;SHT30;59249;59.736;30.568;2022-08-23T14:22:38;27.99;59.97
71128;SHT30;59249;59.736;30.568;2022-08-23T14:25:08;27.81;60.63
71128;SHT30;59249;59.736;30.568;2022-08-23T14:27:43;27.78;61.04
71128;SHT30;59249;59.736;30.568;2022-08-23T14:30:25;27.86;60.63
71128;SHT30;59249;59.736;30.568;2022-08-23T14:32:56;27.95;60.80
71128;SHT30;59249;59.736;30.568;2022-08-23T14:35:26;27.86;60.97
71128;SHT30;59249;59.736;30.568;2022-08-23T14:37:55;27.93;60.00
71128;SHT30;59249;59.736;30.568;2022-08-23T14:40:34;27.88;60.29
71128;SHT30;59249;59.736;30.568;2022-08-23T14:43:04;28.07;59.72
71128;SHT30;59249;59.736;30.568;2022-08-23T14:45:33;28.18;59.39
71128;SHT30;59249;59.736;30.568;2022-08-23T14:48:03;28.19;59.45
71128;SHT30;59249;59.736;30.568;2022-08-23T14:50:33;28.72;58.32
71128;SHT30;59249;59.736;30.568;2022-08-23T14:53:03;28.91;57.82
71128;SHT30;59249;59.736;30.568;2022-08-23T14:55:33;29.07;57.14
71128;SHT30;59249;59.736;30.568;2022-08-23T14:58:03;29.16;56.66
71128;SHT30;59249;59.736;30.568;2022-08-23T15:00:34;29.20;56.30
71128;SHT30;59249;59.736;30.568;2022-08-23T15:03:06;29.29;56.13
71128;SHT30;59249;59.736;30.568;2022-08-23T15:05:36;29.26;55.88
71128;SHT30;59249;59.736;30.568;2022-08-23T15:08:05;29.14;56.01
71128;SHT30;59249;59.736;30.568;2022-08-23T15:10:34;29.04;56.53
71128;SHT30;59249;59.736;30.568;2022-08-23T15:13:24;29.19;56.37
71128;SHT30;59249;59.736;30.568;2022-08-23T15:16:02;29.23;56.01
71128;SHT30;59249;59.736;30.568;2022-08-23T15:18:32;29.12;56.25
71128;SHT30;59249;59.736;30.568;2022-08-23T15:21:02;29.09;56.28
71128;SHT30;59249;59.736;30.568;2022-08-23T15:23:31;29.19;56.23
71128;SHT30;59249;59.736;30.568;2022-08-23T15:26:00;29.35;55.65
71128;SHT30;59249;59.736;30.568;2022-08-23T15:28:30;29.55;55.50
71128;SHT30;59249;59.736;30.568;2022-08-23T15:30:59;29.34;55.38
71128;SHT30;59249;59.736;30.568;2022-08-23T15:33:28;29.23;55.34
71128;SHT30;59249;59.736;30.568;2022-08-23T15:36:00;29.10;55.30
71128;SHT30;59249;59.736;30.568;2022-08-23T15:38:30;29.10;55.67
71128;SHT30;59249;59.736;30.568;2022-08-23T15:40:59;29.02;55.48
71128;SHT30;59249;59.736;30.568;2022-08-23T15:43:30;29.07;55.52
71128;SHT30;59249;59.736;30.568;2022-08-23T15:46:07;28.81;56.22
71128;SHT30;59249;59.736;30.568;2022-08-23T15:48:43;28.69;56.58
71128;SHT30;59249;59.736;30.568;2022-08-23T15:51:12;28.65;56.83
71128;SHT30;59249;59.736;30.568;2022-08-23T15:53:42;28.65;56.83
71128;SHT30;59249;59.736;30.568;2022-08-23T15:56:15;28.52;56.75
71128;SHT30;59249;59.736;30.568;2022-08-23T15:58:47;28.30;57.31
71128;SHT30;59249;59.736;30.568;2022-08-23T16:01:17;28.13;57.94
71128;SHT30;59249;59.736;30.568;2022-08-23T16:03:51;28.02;58.08
71128;SHT30;59249;59.736;30.568;2022-08-23T16:06:21;28.26;57.74
71128;SHT30;59249;59.736;30.568;2022-08-23T16:08:51;28.29;57.62
71128;SHT30;59249;59.736;30.568;2022-08-23T16:11:22;28.31;57.65
71128;SHT30;59249;59.736;30.568;2022-08-23T16:13:52;28.18;58.11
71128;SHT30;59249;59.736;30.568;2022-08-23T16:16:27;28.06;58.30
71128;SHT30;59249;59.736;30.568;2022-08-23T16:18:58;27.80;59.33
71128;SHT30;59249;59.736;30.568;2022-08-23T16:21:30;27.92;59.09
71128;SHT30;59249;59.736;30.568;2022-08-23T16:23:59;27.65;59.97
71128;SHT30;59249;59.736;30.568;2022-08-23T16:26:32;27.69;59.99
71128;SHT30;59249;59.736;30.568;2022-08-23T16:29:08;27.47;60.58
71128;SHT30;59249;59.736;30.568;2022-08-23T16:31:40;27.28;61.77